sensor_id;sensor_type;location;lat;lon;timestamp;temperature;humidity
46123;DHT22;31856;-35.404;149.120;2023-12-20T00:00:38;14.60;81.50
46123;DHT22;31856;-35.404;149.120;2023-12-20T00:03:07;14.60;80.50
46123;DHT22;31856;-35.404;149.120;2023-12-20T00:05:37;14.50;80.40
46123;DHT22;31856;-35.404;149.120;2023-12-20T00:08:09;14.60;80.50
46123;DHT22;31856;-35.404;149.120;2023-12-20T00:10:39;14.60;81.00
46123;DHT22;31856;-35.404;149.120;2023-12-20T00:13:09;14.60;81.20
46123;DHT22;31856;-35.404;149.120;2023-12-20T00:15:39;14.50;80.40
46123;DHT22;31856;-35.404;149.120;2023-12-20T00:18:09;14.60;81.30
46123;DHT22;31856;-35.404;149.120;2023-12-20T00:20:39;14.70;81.30
46123;DHT22;31856;-35.404;149.120;2023-12-20T00:23:08;14.70;80.70
46123;DHT22;31856;-35.404;149.120;2023-12-20T00:25:37;14.80;81.10
46123;DHT22;31856;-35.404;149.120;2023-12-20T00:28:07;14.80;81.30
46123;DHT22;31856;-35.404;149.120;2023-12-20T00:30:37;14.80;81.30
46123;DHT22;31856;-35.404;149.120;2023-12-20T00:33:06;14.80;81.70
46123;DHT22;31856;-35.404;149.120;2023-12-20T00:35:36;14.80;81.60
46123;DHT22;31856;-35.404;149.120;2023-12-20T00:38:06;14.80;81.80
46123;DHT22;31856;-35.404;149.120;2023-12-20T00:40:37;14.80;81.60
46123;DHT22;31856;-35.404;149.120;2023-12-20T00:43:07;14.90;80.60
46123;DHT22;31856;-35.404;149.120;2023-12-20T00:45:37;14.90;80.80
46123;DHT22;31856;-35.404;149.120;2023-12-20T00:48:07;15.00;81.20
46123;DHT22;31856;-35.404;149.120;2023-12-20T00:50:37;14.90;81.40
46123;DHT22;31856;-35.404;149.120;2023-12-20T01:05:35;15.10;81.00
46123;DHT22;31856;-35.404;149.120;2023-12-20T01:08:05;15.00;80.20
46123;DHT22;31856;-35.404;149.120;2023-12-20T01:10:35;15.00;81.20
46123;DHT22;31856;-35.404;149.120;2023-12-20T01:13:05;15.00;80.40
46123;DHT22;31856;-35.404;149.120;2023-12-20T01:15:36;15.00;80.00
46123;DHT22;31856;-35.404;149.120;2023-12-20T01:18:05;15.00;80.20
46123;DHT22;31856;-35.404;149.120;2023-12-20T01:20:35;15.00;79.50
46123;DHT22;31856;-35.404;149.120;2023-12-20T01:23:04;15.00;79.90
46123;DHT22;31856;-35.404;149.120;2023-12-20T01:25:34;15.00;80.20
46123;DHT22;31856;-35.404;149.120;2023-12-20T01:28:03;15.00;79.90
46123;DHT22;31856;-35.404;149.120;2023-12-20T01:30:33;14.90;79.20
46123;DHT22;31856;-35.404;149.120;2023-12-20T01:33:03;14.80;79.70
46123;DHT22;31856;-35.404;149.120;2023-12-20T01:35:33;14.90;79.90
46123;DHT22;31856;-35.404;149.120;2023-12-20T01:38:03;14.90;79.70
46123;DHT22;31856;-35.404;149.120;2023-12-20T01:40:33;14.90;79.20
46123;DHT22;31856;-35.404;149.120;2023-12-20T01:43:06;15.00;79.30
46123;DHT22;31856;-35.404;149.120;2023-12-20T01:45:37;15.00;78.80
46123;DHT22;31856;-35.404;149.120;2023-12-20T01:48:07;14.90;78.90
46123;DHT22;31856;-35.404;149.120;2023-12-20T01:50:37;14.90;78.30
46123;DHT22;31856;-35.404;149.120;2023-12-20T01:53:07;14.80;78.60
46123;DHT22;31856;-35.404;149.120;2023-12-20T01:55:39;14.80;77.70
46123;DHT22;31856;-35.404;149.120;2023-12-20T01:58:09;14.80;78.10
46123;DHT22;31856;-35.404;149.120;2023-12-20T02:00:39;14.70;78.20
46123;DHT22;31856;-35.404;149.120;2023-12-20T02:03:10;14.80;78.50
46123;DHT22;31856;-35.404;149.120;2023-12-20T02:05:40;14.90;78.50
46123;DHT22;31856;-35.404;149.120;2023-12-20T02:08:11;14.90;78.40
46123;DHT22;31856;-35.404;149.120;2023-12-20T02:10:40;14.90;77.50
46123;DHT22;31856;-35.404;149.120;2023-12-20T02:13:12;14.80;77.30
46123;DHT22;31856;-35.404;149.120;2023-12-20T02:15:42;14.80;77.80
46123;DHT22;31856;-35.404;149.120;2023-12-20T02:18:12;14.80;77.80
46123;DHT22;31856;-35.404;149.120;2023-12-20T02:20:44;14.90;78.70
46123;DHT22;31856;-35.404;149.120;2023-12-20T02:23:14;14.90;77.70
46123;DHT22;31856;-35.404;149.120;2023-12-20T02:25:43;14.90;77.80
46123;DHT22;31856;-35.404;149.120;2023-12-20T02:28:13;14.90;78.00
46123;DHT22;31856;-35.404;149.120;2023-12-20T02:30:42;15.00;77.30
46123;DHT22;31856;-35.404;149.120;2023-12-20T02:33:12;15.10;77.30
46123;DHT22;31856;-35.404;149.120;2023-12-20T02:35:43;15.10;78.20
46123;DHT22;31856;-35.404;149.120;2023-12-20T02:38:13;15.10;76.00
46123;DHT22;31856;-35.404;149.120;2023-12-20T02:40:43;15.20;75.40
46123;DHT22;31856;-35.404;149.120;2023-12-20T02:43:16;15.20;75.60
46123;DHT22;31856;-35.404;149.120;2023-12-20T02:45:46;15.30;75.70
46123;DHT22;31856;-35.404;149.120;2023-12-20T02:48:15;15.20;74.90
46123;DHT22;31856;-35.404;149.120;2023-12-20T02:50:46;15.20;75.10
46123;DHT22;31856;-35.404;149.120;2023-12-20T02:53:16;15.30;75.80
46123;DHT22;31856;-35.404;149.120;2023-12-20T02:55:47;15.30;75.00
46123;DHT22;31856;-35.404;149.120;2023-12-20T02:58:17;15.40;75.40
46123;DHT22;31856;-35.404;149.120;2023-12-20T03:00:47;15.40;73.70
46123;DHT22;31856;-35.404;149.120;2023-12-20T03:03:18;15.40;73.50
46123;DHT22;31856;-35.404;149.120;2023-12-20T03:05:48;15.30;72.60
46123;DHT22;31856;-35.404;149.120;2023-12-20T03:08:17;15.30;72.30
46123;DHT22;31856;-35.404;149.120;2023-12-20T03:10:47;15.30;73.20
46123;DHT22;31856;-35.404;149.120;2023-12-20T03:13:17;15.10;72.50
46123;DHT22;31856;-35.404;149.120;2023-12-20T03:15:47;15.10;73.40
46123;DHT22;31856;-35.404;149.120;2023-12-20T03:18:17;15.10;74.10
46123;DHT22;31856;-35.404;149.120;2023-12-20T03:20:48;15.00;73.30
46123;DHT22;31856;-35.404;149.120;2023-12-20T03:23:19;15.00;73.80
46123;DHT22;31856;-35.404;149.120;2023-12-20T03:25:49;15.00;74.20
46123;DHT22;31856;-35.404;149.120;2023-12-20T03:28:18;15.00;73.70
46123;DHT22;31856;-35.404;149.120;2023-12-20T03:30:48;15.00;73.50
46123;DHT22;31856;-35.404;149.120;2023-12-20T03:33:18;15.10;73.80
46123;DHT22;31856;-35.404;149.120;2023-12-20T04:44:03;15.60;71.10
46123;DHT22;31856;-35.404;149.120;2023-12-20T04:46:33;15.60;70.50
46123;DHT22;31856;-35.404;149.120;2023-12-20T04:49:03;15.70;70.60
46123;DHT22;31856;-35.404;149.120;2023-12-20T04:51:33;15.70;70.30
46123;DHT22;31856;-35.404;149.120;2023-12-20T04:54:03;15.70;69.70
46123;DHT22;31856;-35.404;149.120;2023-12-20T04:56:34;15.80;69.90
46123;DHT22;31856;-35.404;149.120;2023-12-20T04:59:04;15.80;69.70
46123;DHT22;31856;-35.404;149.120;2023-12-20T05:01:34;15.90;69.30
46123;DHT22;31856;-35.404;149.120;2023-12-20T05:04:05;15.70;69.80
46123;DHT22;31856;-35.404;149.120;2023-12-20T05:06:35;15.60;69.80
46123;DHT22;31856;-35.404;149.120;2023-12-20T05:09:05;15.70;69.60
46123;DHT22;31856;-35.404;149.120;2023-12-20T05:11:35;15.80;70.10
46123;DHT22;31856;-35.404;149.120;2023-12-20T05:14:04;15.60;70.60
46123;DHT22;31856;-35.404;149.120;2023-12-20T05:16:34;15.80;70.80
46123;DHT22;31856;-35.404;149.120;2023-12-20T05:19:04;15.80;70.20
46123;DHT22;31856;-35.404;149.120;2023-12-20T05:21:35;15.80;70.00
46123;DHT22;31856;-35.404;149.120;2023-12-20T05:24:05;15.90;69.80
46123;DHT22;31856;-35.404;149.120;2023-12-20T05:26:36;16.00;69.50
46123;DHT22;31856;-35.404;149.120;2023-12-20T05:29:05;15.90;69.90
46123;DHT22;31856;-35.404;149.120;2023-12-20T05:31:35;15.70;70.20
46123;DHT22;31856;-35.404;149.120;2023-12-20T05:34:04;15.70;69.00
46123;DHT22;31856;-35.404;149.120;2023-12-20T05:36:34;15.70;70.10
46123;DHT22;31856;-35.404;149.120;2023-12-20T05:39:04;15.80;69.50
46123;DHT22;31856;-35.404;149.120;2023-12-20T05:41:33;15.80;68.50
46123;DHT22;31856;-35.404;149.120;2023-12-20T05:49:44;15.80;68.80
46123;DHT22;31856;-35.404;149.120;2023-12-20T05:52:14;15.90;68.00
46123;DHT22;31856;-35.404;149.120;2023-12-20T05:54:44;15.80;68.10
46123;DHT22;31856;-35.404;149.120;2023-12-20T05:57:14;15.80;68.50
46123;DHT22;31856;-35.404;149.120;2023-12-20T05:59:43;15.80;68.60
46123;DHT22;31856;-35.404;149.120;2023-12-20T06:02:13;15.80;68.10
46123;DHT22;31856;-35.404;149.120;2023-12-20T06:04:43;15.80;68.30
46123;DHT22;31856;-35.404;149.120;2023-12-20T06:07:14;15.90;68.10
46123;DHT22;31856;-35.404;149.120;2023-12-20T06:09:44;16.00;67.80
46123;DHT22;31856;-35.404;149.120;2023-12-20T06:12:14;16.00;68.00
46123;DHT22;31856;-35.404;149.120;2023-12-20T06:14:43;16.10;68.50
46123;DHT22;31856;-35.404;149.120;2023-12-20T06:17:13;16.10;68.50
46123;DHT22;31856;-35.404;149.120;2023-12-20T06:19:42;16.20;67.80
46123;DHT22;31856;-35.404;149.120;2023-12-20T06:22:15;16.20;68.20
46123;DHT22;31856;-35.404;149.120;2023-12-20T06:24:45;16.10;66.70
46123;DHT22;31856;-35.404;149.120;2023-12-20T06:27:14;16.10;66.60
46123;DHT22;31856;-35.404;149.120;2023-12-20T06:29:45;16.10;66.90
46123;DHT22;31856;-35.404;149.120;2023-12-20T06:32:14;16.10;66.90
46123;DHT22;31856;-35.404;149.120;2023-12-20T06:34:44;16.10;67.30
46123;DHT22;31856;-35.404;149.120;2023-12-20T06:37:14;16.00;67.80
46123;DHT22;31856;-35.404;149.120;2023-12-20T06:39:44;16.00;67.10
46123;DHT22;31856;-35.404;149.120;2023-12-20T06:42:14;16.10;67.30
46123;DHT22;31856;-35.404;149.120;2023-12-20T06:44:44;16.10;67.70
46123;DHT22;31856;-35.404;149.120;2023-12-20T06:47:13;16.10;67.10
46123;DHT22;31856;-35.404;149.120;2023-12-20T06:49:43;16.20;67.90
46123;DHT22;31856;-35.404;149.120;2023-12-20T06:52:13;16.20;67.50
46123;DHT22;31856;-35.404;149.120;2023-12-20T06:54:43;16.30;67.70
46123;DHT22;31856;-35.404;149.120;2023-12-20T06:57:12;16.30;66.50
46123;DHT22;31856;-35.404;149.120;2023-12-20T06:59:43;16.20;65.50
46123;DHT22;31856;-35.404;149.120;2023-12-20T07:02:13;16.20;65.30
46123;DHT22;31856;-35.404;149.120;2023-12-20T07:04:42;16.30;65.70
46123;DHT22;31856;-35.404;149.120;2023-12-20T07:07:12;16.20;64.80
46123;DHT22;31856;-35.404;149.120;2023-12-20T07:09:42;16.30;65.30
46123;DHT22;31856;-35.404;149.120;2023-12-20T07:12:12;16.30;65.20
46123;DHT22;31856;-35.404;149.120;2023-12-20T07:14:42;16.30;64.30
46123;DHT22;31856;-35.404;149.120;2023-12-20T07:17:12;16.30;64.10
46123;DHT22;31856;-35.404;149.120;2023-12-20T07:19:44;16.20;63.50
46123;DHT22;31856;-35.404;149.120;2023-12-20T07:22:14;16.20;63.60
46123;DHT22;31856;-35.404;149.120;2023-12-20T07:24:44;16.20;62.90
46123;DHT22;31856;-35.404;149.120;2023-12-20T07:27:15;16.20;63.10
46123;DHT22;31856;-35.404;149.120;2023-12-20T07:29:45;16.10;63.60
46123;DHT22;31856;-35.404;149.120;2023-12-20T07:32:15;16.10;64.60
46123;DHT22;31856;-35.404;149.120;2023-12-20T07:34:44;16.20;63.70
46123;DHT22;31856;-35.404;149.120;2023-12-20T07:37:15;16.20;64.00
46123;DHT22;31856;-35.404;149.120;2023-12-20T07:39:45;16.30;63.80
46123;DHT22;31856;-35.404;149.120;2023-12-20T07:42:17;16.30;64.10
46123;DHT22;31856;-35.404;149.120;2023-12-20T07:44:48;16.30;63.90
46123;DHT22;31856;-35.404;149.120;2023-12-20T10:39:28;15.40;66.50
46123;DHT22;31856;-35.404;149.120;2023-12-20T10:41:57;15.30;67.20
46123;DHT22;31856;-35.404;149.120;2023-12-20T10:44:27;15.20;67.60
46123;DHT22;31856;-35.404;149.120;2023-12-20T10:46:57;15.20;68.30
46123;DHT22;31856;-35.404;149.120;2023-12-20T10:49:28;15.10;68.80
46123;DHT22;31856;-35.404;149.120;2023-12-20T10:51:59;15.20;68.90
46123;DHT22;31856;-35.404;149.120;2023-12-20T10:54:30;15.20;69.20
46123;DHT22;31856;-35.404;149.120;2023-12-20T10:57:00;15.20;69.40
46123;DHT22;31856;-35.404;149.120;2023-12-20T10:59:33;15.20;69.70
46123;DHT22;31856;-35.404;149.120;2023-12-20T11:02:04;15.20;70.00
46123;DHT22;31856;-35.404;149.120;2023-12-20T11:04:36;15.10;70.00
46123;DHT22;31856;-35.404;149.120;2023-12-20T11:07:16;15.00;70.40
46123;DHT22;31856;-35.404;149.120;2023-12-20T11:09:49;15.10;70.20
46123;DHT22;31856;-35.404;149.120;2023-12-20T11:12:26;15.10;70.40
46123;DHT22;31856;-35.404;149.120;2023-12-20T11:14:59;15.00;70.40
46123;DHT22;31856;-35.404;149.120;2023-12-20T11:17:33;14.90;70.40
46123;DHT22;31856;-35.404;149.120;2023-12-20T11:20:07;14.90;70.70
46123;DHT22;31856;-35.404;149.120;2023-12-20T11:22:40;15.00;70.70
46123;DHT22;31856;-35.404;149.120;2023-12-20T11:25:21;14.90;71.10
46123;DHT22;31856;-35.404;149.120;2023-12-20T11:28:08;14.80;71.10
46123;DHT22;31856;-35.404;149.120;2023-12-20T11:30:45;14.80;71.40
46123;DHT22;31856;-35.404;149.120;2023-12-20T11:33:15;14.80;71.60
46123;DHT22;31856;-35.404;149.120;2023-12-20T11:35:45;14.80;72.20
46123;DHT22;31856;-35.404;149.120;2023-12-20T11:38:15;14.80;71.90
46123;DHT22;31856;-35.404;149.120;2023-12-20T15:06:34;14.50;77.20
46123;DHT22;31856;-35.404;149.120;2023-12-20T15:09:04;14.40;77.30
46123;DHT22;31856;-35.404;149.120;2023-12-20T15:11:34;14.40;77.50
46123;DHT22;31856;-35.404;149.120;2023-12-20T15:14:04;14.40;77.50
46123;DHT22;31856;-35.404;149.120;2023-12-20T15:16:35;14.40;77.50
46123;DHT22;31856;-35.404;149.120;2023-12-20T15:19:05;14.40;77.90
46123;DHT22;31856;-35.404;149.120;2023-12-20T15:21:35;14.30;77.50
46123;DHT22;31856;-35.404;149.120;2023-12-20T15:24:14;14.30;78.00
46123;DHT22;31856;-35.404;149.120;2023-12-20T15:26:45;14.30;77.80
46123;DHT22;31856;-35.404;149.120;2023-12-20T15:29:15;14.40;77.90
46123;DHT22;31856;-35.404;149.120;2023-12-20T15:31:46;14.40;77.70
46123;DHT22;31856;-35.404;149.120;2023-12-20T15:34:17;14.50;77.80
46123;DHT22;31856;-35.404;149.120;2023-12-20T15:36:49;14.50;77.70
46123;DHT22;31856;-35.404;149.120;2023-12-20T15:39:19;14.40;77.90
46123;DHT22;31856;-35.404;149.120;2023-12-20T15:41:49;14.30;77.90
46123;DHT22;31856;-35.404;149.120;2023-12-20T15:44:18;14.40;77.70
46123;DHT22;31856;-35.404;149.120;2023-12-20T15:46:48;14.40;77.70
46123;DHT22;31856;-35.404;149.120;2023-12-20T15:49:17;14.40;77.80
46123;DHT22;31856;-35.404;149.120;2023-12-20T15:51:48;14.40;77.50
46123;DHT22;31856;-35.404;149.120;2023-12-20T15:54:17;14.40;77.50
46123;DHT22;31856;-35.404;149.120;2023-12-20T15:56:47;14.40;77.70
46123;DHT22;31856;-35.404;149.120;2023-12-20T15:59:17;14.40;77.50
46123;DHT22;31856;-35.404;149.120;2023-12-20T16:01:48;14.40;77.60
46123;DHT22;31856;-35.404;149.120;2023-12-20T17:16:23;14.30;76.30
46123;DHT22;31856;-35.404;149.120;2023-12-20T17:18:53;14.20;76.20
46123;DHT22;31856;-35.404;149.120;2023-12-20T17:21:22;14.20;76.30
46123;DHT22;31856;-35.404;149.120;2023-12-20T17:23:53;14.20;76.40
46123;DHT22;31856;-35.404;149.120;2023-12-20T17:26:23;14.20;76.50
46123;DHT22;31856;-35.404;149.120;2023-12-20T17:28:54;14.20;76.70
46123;DHT22;31856;-35.404;149.120;2023-12-20T17:31:24;14.10;76.50
46123;DHT22;31856;-35.404;149.120;2023-12-20T17:33:54;14.10;76.40
46123;DHT22;31856;-35.404;149.120;2023-12-20T17:36:24;14.20;76.40
46123;DHT22;31856;-35.404;149.120;2023-12-20T17:38:53;14.20;76.50
46123;DHT22;31856;-35.404;149.120;2023-12-20T17:41:23;14.10;76.30
46123;DHT22;31856;-35.404;149.120;2023-12-20T17:43:53;14.20;76.10
46123;DHT22;31856;-35.404;149.120;2023-12-20T17:46:22;14.20;76.20
46123;DHT22;31856;-35.404;149.120;2023-12-20T17:48:52;14.10;76.50
46123;DHT22;31856;-35.404;149.120;2023-12-20T17:51:22;14.10;75.90
46123;DHT22;31856;-35.404;149.120;2023-12-20T17:53:51;14.10;76.00
46123;DHT22;31856;-35.404;149.120;2023-12-20T17:56:21;14.10;75.90
46123;DHT22;31856;-35.404;149.120;2023-12-20T17:58:51;14.10;76.10
46123;DHT22;31856;-35.404;149.120;2023-12-20T18:01:22;14.10;76.10
46123;DHT22;31856;-35.404;149.120;2023-12-20T18:03:52;14.00;75.90
46123;DHT22;31856;-35.404;149.120;2023-12-20T18:06:22;14.00;75.90
46123;DHT22;31856;-35.404;149.120;2023-12-20T18:08:52;13.90;76.20
46123;DHT22;31856;-35.404;149.120;2023-12-20T18:11:22;13.90;76.10
46123;DHT22;31856;-35.404;149.120;2023-12-20T18:13:51;13.90;76.00
46123;DHT22;31856;-35.404;149.120;2023-12-20T21:33:56;15.00;66.90
46123;DHT22;31856;-35.404;149.120;2023-12-20T21:36:26;15.10;66.70
46123;DHT22;31856;-35.404;149.120;2023-12-20T21:38:56;15.10;66.70
46123;DHT22;31856;-35.404;149.120;2023-12-20T21:41:26;15.20;65.90
46123;DHT22;31856;-35.404;149.120;2023-12-20T21:44:11;15.30;66.20
46123;DHT22;31856;-35.404;149.120;2023-12-20T21:47:21;15.40;65.70
46123;DHT22;31856;-35.404;149.120;2023-12-20T21:50:32;15.50;64.70
46123;DHT22;31856;-35.404;149.120;2023-12-20T21:56:54;15.80;63.90
46123;DHT22;31856;-35.404;149.120;2023-12-20T21:59:37;15.80;64.20
46123;DHT22;31856;-35.404;149.120;2023-12-20T22:02:11;15.80;64.20
46123;DHT22;31856;-35.404;149.120;2023-12-20T22:05:02;15.80;64.20
46123;DHT22;31856;-35.404;149.120;2023-12-20T22:07:44;15.80;63.80
46123;DHT22;31856;-35.404;149.120;2023-12-20T22:10:20;15.80;64.30
46123;DHT22;31856;-35.404;149.120;2023-12-20T22:13:03;15.80;65.20
46123;DHT22;31856;-35.404;149.120;2023-12-20T22:15:45;15.80;65.70
46123;DHT22;31856;-35.404;149.120;2023-12-20T22:18:41;15.80;65.00
46123;DHT22;31856;-35.404;149.120;2023-12-20T22:21:20;15.80;64.70
46123;DHT22;31856;-35.404;149.120;2023-12-20T22:23:57;15.80;64.80
46123;DHT22;31856;-35.404;149.120;2023-12-20T22:26:29;15.80;64.90
46123;DHT22;31856;-35.404;149.120;2023-12-20T22:29:02;15.80;65.30
46123;DHT22;31856;-35.404;149.120;2023-12-20T22:31:32;15.90;65.50
46123;DHT22;31856;-35.404;149.120;2023-12-20T23:54:02;18.00;61.20
46123;DHT22;31856;-35.404;149.120;2023-12-20T23:56:34;18.00;60.20
46123;DHT22;31856;-35.404;149.120;2023-12-20T23:59:05;18.10;60.50
